Time;durP1;ratioP1;P1;durP2;ratioP2;P2;SDS_P1;SDS_P2;PMS_P1;PMS_P2;Temp;Humidity;BMP_temperature;BMP_pressure;BME280_temperature;BME280_humidity;BME280_pressure;Samples;Min_cycle;Max_cycle;Signal;HPM_P1;HPM_P2
2024/03/07 00:00:16;;;;;;;30.33;25.00;;;9.50;99.90;;;;;;5052802;28;20287;-70
2024/03/07 00:02:43;;;;;;;33.43;24.90;;;9.50;99.90;;;;;;5053192;28;20564;-70
2024/03/07 00:05:09;;;;;;;38.00;27.03;;;9.50;99.90;;;;;;5053638;28;20401;-69
2024/03/07 00:07:34;;;;;;;38.93;30.67;;;9.50;99.90;;;;;;5052792;28;20403;-69
2024/03/07 00:10:03;;;;;;;35.77;28.57;;;9.50;99.90;;;;;;5052992;28;20196;-71
2024/03/07 00:12:29;;;;;;;36.27;27.03;;;9.40;99.90;;;;;;5053039;28;20175;-69
2024/03/07 00:14:55;;;;;;;33.40;28.07;;;9.30;99.90;;;;;;5052950;28;20407;-69
2024/03/07 00:17:22;;;;;;;37.70;28.70;;;9.40;99.90;;;;;;5055801;28;20409;-70
2024/03/07 00:19:48;;;;;;;33.30;25.70;;;9.40;99.90;;;;;;5056385;28;20217;-68
2024/03/07 00:22:14;;;;;;;41.83;31.83;;;9.30;99.90;;;;;;5057114;28;20763;-69
2024/03/07 00:24:40;;;;;;;39.40;30.10;;;9.30;99.90;;;;;;5057256;28;20242;-69
2024/03/07 00:27:06;;;;;;;34.50;26.27;;;9.20;99.90;;;;;;5056556;28;20465;-69
2024/03/07 00:29:35;;;;;;;35.03;26.37;;;9.20;99.90;;;;;;5055418;28;20186;-69
2024/03/07 00:32:01;;;;;;;33.27;26.77;;;9.20;99.90;;;;;;5057105;28;20410;-69
2024/03/07 00:34:27;;;;;;;33.70;29.40;;;9.10;99.90;;;;;;5056924;28;20441;-69
2024/03/07 00:36:53;;;;;;;43.77;30.67;;;9.00;99.90;;;;;;5056795;28;20415;-69
2024/03/07 00:39:19;;;;;;;43.87;31.20;;;8.70;99.90;;;;;;5056457;28;20464;-69
2024/03/07 00:41:45;;;;;;;36.33;28.50;;;8.40;99.90;;;;;;5095179;22;20587;-72
2024/03/07 00:44:11;;;;;;;38.87;29.97;;;8.50;99.90;;;;;;5075876;28;20400;-71
2024/03/07 00:46:37;;;;;;;35.83;27.43;;;8.60;99.90;;;;;;5075703;28;20163;-70
2024/03/07 00:49:02;;;;;;;37.40;29.83;;;8.70;99.90;;;;;;5076093;28;20170;-71
2024/03/07 00:51:28;;;;;;;42.97;30.23;;;8.80;99.90;;;;;;5075264;28;20425;-71
2024/03/07 00:53:54;;;;;;;32.50;26.30;;;8.90;99.90;;;;;;5076052;28;20398;-70
2024/03/07 00:56:21;;;;;;;36.80;29.87;;;9.10;99.90;;;;;;5074389;28;20263;-70
2024/03/07 00:58:47;;;;;;;37.43;28.63;;;9.00;99.90;;;;;;5075746;28;20300;-71
2024/03/07 01:01:15;;;;;;;36.27;29.53;;;9.00;99.90;;;;;;5075892;28;20456;-70
2024/03/07 01:03:40;;;;;;;37.07;27.80;;;9.10;99.90;;;;;;5075631;28;20430;-72
2024/03/07 01:06:06;;;;;;;30.23;24.33;;;9.10;99.90;;;;;;5075530;28;20404;-72
2024/03/07 01:08:32;;;;;;;37.27;30.10;;;9.10;99.90;;;;;;5075797;28;20173;-72
2024/03/07 01:10:58;;;;;;;40.13;33.20;;;9.10;99.90;;;;;;5075333;28;20418;-73
2024/03/07 01:13:24;;;;;;;40.47;32.63;;;9.00;99.90;;;;;;5075477;28;20252;-72
2024/03/07 01:15:50;;;;;;;42.33;34.03;;;9.00;99.90;;;;;;5075189;28;20547;-70
2024/03/07 01:18:17;;;;;;;41.03;31.27;;;8.60;99.90;;;;;;5074896;28;20232;-71
2024/03/07 01:20:43;;;;;;;46.50;33.70;;;8.60;99.90;;;;;;5075064;28;20428;-71
2024/03/07 01:23:08;;;;;;;44.57;34.70;;;8.60;99.90;;;;;;5075456;28;20778;-71
2024/03/07 01:25:34;;;;;;;48.43;36.20;;;8.60;99.90;;;;;;5075142;28;20517;-71
2024/03/07 01:28:00;;;;;;;46.20;35.10;;;8.60;99.90;;;;;;5075138;28;20262;-72
2024/03/07 01:30:28;;;;;;;45.00;33.53;;;8.60;99.90;;;;;;5074910;28;20305;-71
2024/03/07 01:32:54;;;;;;;47.93;35.23;;;8.50;99.90;;;;;;5074949;28;20431;-72
2024/03/07 01:35:20;;;;;;;46.17;37.07;;;8.50;99.90;;;;;;5074963;28;20436;-72
2024/03/07 01:37:46;;;;;;;44.33;33.63;;;8.50;99.90;;;;;;5055707;28;20456;-72
2024/03/07 01:40:13;;;;;;;43.33;32.43;;;8.30;99.90;;;;;;5055125;28;20462;-72
2024/03/07 01:42:38;;;;;;;45.50;35.00;;;8.20;99.90;;;;;;5055042;28;20338;-72
2024/03/07 01:45:04;;;;;;;51.73;36.93;;;8.10;99.90;;;;;;5054686;28;20434;-72
2024/03/07 01:47:30;;;;;;;50.30;36.83;;;8.00;99.90;;;;;;5071646;28;20173;-72
2024/03/07 01:49:56;;;;;;;51.33;37.83;;;8.00;99.90;;;;;;5074495;28;20411;-72
2024/03/07 01:52:22;;;;;;;47.67;34.63;;;8.00;99.90;;;;;;5074474;28;20414;-72
2024/03/07 01:54:48;;;;;;;42.97;34.27;;;7.90;99.90;;;;;;5074409;28;20159;-72
2024/03/07 01:57:16;;;;;;;45.50;36.73;;;7.90;99.90;;;;;;5059917;28;20407;-72
2024/03/07 01:59:43;;;;;;;49.60;37.27;;;7.80;99.90;;;;;;5054566;28;20816;-72
2024/03/07 02:02:09;;;;;;;54.80;39.33;;;7.80;99.90;;;;;;5054337;28;20486;-72
2024/03/07 02:04:34;;;;;;;50.67;39.60;;;7.90;99.90;;;;;;5054371;28;20436;-72
2024/03/07 02:07:00;;;;;;;47.70;36.60;;;7.70;99.90;;;;;;5066699;28;20597;-72
2024/03/07 02:09:26;;;;;;;50.50;37.60;;;7.70;99.90;;;;;;5074191;28;20668;-70
2024/03/07 02:11:51;;;;;;;51.23;36.77;;;7.60;99.90;;;;;;5074150;28;20211;-72
2024/03/07 02:14:17;;;;;;;49.30;35.13;;;7.60;99.90;;;;;;5074134;28;20172;-71
2024/03/07 02:16:43;;;;;;;44.17;34.20;;;7.50;99.90;;;;;;5072765;28;20176;-72
2024/03/07 02:19:14;;;;;;;44.97;34.27;;;7.50;99.90;;;;;;5073907;28;20188;-71
2024/03/07 02:21:40;;;;;;;40.33;32.70;;;7.40;99.90;;;;;;5074206;28;20423;-71
2024/03/07 02:24:05;;;;;;;50.37;37.10;;;7.40;99.90;;;;;;5073414;28;20412;-73
2024/03/07 02:26:31;;;;;;;57.20;38.27;;;7.30;99.90;;;;;;5074072;28;20203;-71
2024/03/07 02:28:57;;;;;;;56.13;41.43;;;7.20;99.90;;;;;;5073905;28;20201;-71
2024/03/07 02:31:34;;;;;;;48.67;35.10;;;7.00;99.90;;;;;;5073686;28;20207;-71
2024/03/07 02:34:01;;;;;;;49.23;36.03;;;6.90;99.90;;;;;;5074065;28;20171;-71
2024/03/07 02:36:27;;;;;;;54.80;39.27;;;6.90;99.90;;;;;;5073887;28;20507;-72
2024/03/07 02:38:52;;;;;;;46.37;34.03;;;6.80;99.90;;;;;;5072644;28;20538;-72
2024/03/07 02:41:18;;;;;;;43.37;32.63;;;6.80;99.90;;;;;;5073507;28;20203;-71
2024/03/07 02:43:43;;;;;;;48.57;34.30;;;6.70;99.90;;;;;;5073927;28;20168;-72
2024/03/07 02:46:11;;;;;;;52.60;38.00;;;6.70;99.90;;;;;;5073713;28;20159;-72
2024/03/07 02:48:37;;;;;;;47.53;35.23;;;6.60;99.90;;;;;;5073772;28;20257;-71
2024/03/07 02:51:05;;;;;;;44.10;33.87;;;6.50;99.90;;;;;;5073346;28;20513;-72
2024/03/07 02:53:32;;;;;;;44.07;33.17;;;6.50;99.90;;;;;;5073396;28;20492;-72
2024/03/07 02:55:58;;;;;;;53.93;37.17;;;6.50;99.90;;;;;;5073597;28;20883;-72
2024/03/07 02:58:24;;;;;;;53.50;36.00;;;6.50;99.90;;;;;;5073151;28;20452;-71
2024/03/07 03:00:58;;;;;;;55.13;38.43;;;6.30;99.90;;;;;;5071966;28;20275;-72
2024/03/07 03:03:24;;;;;;;50.10;33.83;;;6.30;99.90;;;;;;5073352;28;20468;-71
2024/03/07 03:05:49;;;;;;;48.20;35.17;;;6.20;99.90;;;;;;5072990;28;20949;-71
2024/03/07 03:08:15;;;;;;;43.23;32.87;;;6.20;99.90;;;;;;5072998;28;20173;-72
2024/03/07 03:10:41;;;;;;;56.57;39.53;;;6.10;99.90;;;;;;5072969;28;20193;-71
2024/03/07 03:13:06;;;;;;;53.27;38.53;;;6.10;99.90;;;;;;5073073;28;20239;-71
2024/03/07 03:15:32;;;;;;;42.60;31.30;;;6.00;99.90;;;;;;5072883;28;20203;-71
2024/03/07 03:18:00;;;;;;;49.03;34.80;;;6.10;99.90;;;;;;5053441;28;20481;-72
2024/03/07 03:20:33;;;;;;;45.57;33.17;;;6.10;99.90;;;;;;5053185;28;20698;-72
2024/03/07 03:22:59;;;;;;;53.37;36.97;;;6.00;99.90;;;;;;5052798;28;20389;-72
2024/03/07 03:25:24;;;;;;;45.73;33.50;;;5.90;99.90;;;;;;5054010;28;20771;-72
2024/03/07 03:27:50;;;;;;;47.47;34.07;;;5.80;99.90;;;;;;5070838;28;20409;-71
2024/03/07 03:30:18;;;;;;;56.50;36.87;;;5.80;99.90;;;;;;5072555;28;20183;-72
2024/03/07 03:32:45;;;;;;;46.20;33.00;;;5.80;99.90;;;;;;5072820;28;20645;-72
2024/03/07 03:35:13;;;;;;;44.90;33.47;;;5.70;99.90;;;;;;5072502;28;20431;-72
2024/03/07 03:37:42;;;;;;;49.70;36.77;;;5.60;99.90;;;;;;5056110;28;20402;-72
2024/03/07 03:40:10;;;;;;;53.23;38.13;;;5.60;99.90;;;;;;5050902;28;20461;-72
2024/03/07 03:42:40;;;;;;;58.20;39.67;;;5.60;99.90;;;;;;5052944;28;20391;-72
2024/03/07 03:45:07;;;;;;;54.10;37.60;;;5.50;99.90;;;;;;5052805;28;20397;-71
2024/03/07 03:47:37;;;;;;;52.47;37.90;;;5.40;99.90;;;;;;5066946;28;20767;-71
2024/03/07 03:50:04;;;;;;;54.63;38.03;;;5.40;99.90;;;;;;5070917;28;20492;-72
2024/03/07 03:52:30;;;;;;;54.63;38.90;;;5.40;99.90;;;;;;5072344;28;20405;-72
2024/03/07 03:54:56;;;;;;;56.13;37.83;;;5.40;99.90;;;;;;5072645;28;20397;-72
2024/03/07 03:57:22;;;;;;;51.07;35.50;;;5.30;99.90;;;;;;5058475;28;20520;-72
2024/03/07 03:59:48;;;;;;;53.47;36.50;;;5.40;99.90;;;;;;5052405;28;20443;-72
2024/03/07 04:02:13;;;;;;;52.77;38.50;;;5.40;99.90;;;;;;5052555;28;20176;-72
2024/03/07 04:04:40;;;;;;;49.43;35.93;;;5.40;99.90;;;;;;5052414;28;20176;-72
2024/03/07 04:07:05;;;;;;;59.73;37.93;;;5.20;99.90;;;;;;5063600;28;20174;-72
2024/03/07 04:09:31;;;;;;;57.70;38.73;;;5.10;99.90;;;;;;5070969;28;20400;-72
2024/03/07 04:11:57;;;;;;;56.90;37.10;;;5.10;99.90;;;;;;5072440;28;20242;-71
2024/03/07 04:14:23;;;;;;;52.73;38.60;;;5.00;99.90;;;;;;5072431;28;20170;-71
2024/03/07 04:16:49;;;;;;;59.43;40.00;;;5.00;99.90;;;;;;5063198;28;20415;-70
2024/03/07 04:19:15;;;;;;;61.67;43.07;;;5.20;99.90;;;;;;5052687;28;20445;-71
2024/03/07 04:21:41;;;;;;;67.30;43.20;;;5.00;99.90;;;;;;5071447;28;20835;-72
2024/03/07 04:24:07;;;;;;;60.67;41.73;;;5.00;99.90;;;;;;5072241;28;20228;-71
2024/03/07 04:26:32;;;;;;;71.33;45.87;;;4.90;99.90;;;;;;5065619;28;20892;-71
2024/03/07 04:28:58;;;;;;;67.17;44.30;;;5.00;99.90;;;;;;5052332;28;20254;-72
2024/03/07 04:31:24;;;;;;;59.90;40.60;;;5.00;99.90;;;;;;5052279;28;20190;-72
2024/03/07 04:33:50;;;;;;;53.80;37.83;;;5.00;99.90;;;;;;5051362;28;20224;-72
2024/03/07 04:36:16;;;;;;;68.57;45.53;;;5.10;99.90;;;;;;5055162;28;20172;-72
2024/03/07 04:38:45;;;;;;;62.93;42.00;;;5.10;99.90;;;;;;5072144;28;20962;-72
2024/03/07 04:41:11;;;;;;;60.40;41.37;;;5.10;99.90;;;;;;5072244;28;20450;-72
2024/03/07 04:43:37;;;;;;;62.87;42.77;;;5.00;99.90;;;;;;5072250;28;20412;-72
2024/03/07 04:46:03;;;;;;;54.60;38.60;;;5.00;99.90;;;;;;5072020;28;20881;-72
2024/03/07 04:48:28;;;;;;;67.30;44.33;;;5.00;99.90;;;;;;5071928;28;20640;-71
2024/03/07 04:50:54;;;;;;;66.13;44.13;;;5.10;99.90;;;;;;5071941;28;20417;-72
2024/03/07 04:53:19;;;;;;;53.40;38.23;;;5.00;99.90;;;;;;5072294;28;20287;-72
2024/03/07 04:55:45;;;;;;;59.30;39.83;;;5.10;99.90;;;;;;5072668;28;20245;-71
2024/03/07 04:58:10;;;;;;;53.73;37.57;;;4.90;99.90;;;;;;5052216;28;20171;-72
2024/03/07 05:00:36;;;;;;;51.80;37.00;;;4.90;99.90;;;;;;5051964;28;20605;-72
2024/03/07 05:03:02;;;;;;;56.07;40.53;;;4.90;99.90;;;;;;5052914;28;20537;-70
2024/03/07 05:05:28;;;;;;;62.17;42.07;;;4.80;99.90;;;;;;5055814;28;20167;-71
2024/03/07 05:07:55;;;;;;;53.63;39.13;;;4.80;99.90;;;;;;5072641;28;20174;-71
2024/03/07 05:10:21;;;;;;;56.70;39.43;;;4.80;99.90;;;;;;5075537;28;20763;-72
2024/03/07 05:12:46;;;;;;;59.63;40.10;;;4.80;99.90;;;;;;5075471;28;20414;-72
2024/03/07 05:15:12;;;;;;;51.30;36.77;;;4.70;99.90;;;;;;5075452;28;20170;-73
2024/03/07 05:17:38;;;;;;;55.93;39.93;;;4.70;99.90;;;;;;5062934;28;20191;-72
2024/03/07 05:20:10;;;;;;;53.63;38.37;;;4.60;99.90;;;;;;5055087;28;20187;-71
2024/03/07 05:22:50;;;;;;;55.80;38.10;;;4.60;99.90;;;;;;5055289;28;20381;-72
2024/03/07 05:25:16;;;;;;;52.97;38.60;;;4.60;99.90;;;;;;5055457;28;20410;-72
2024/03/07 05:27:42;;;;;;;55.33;37.90;;;4.70;99.90;;;;;;5070392;28;20492;-70
2024/03/07 05:30:11;;;;;;;52.83;37.90;;;4.60;99.90;;;;;;5075048;28;20483;-72
2024/03/07 05:32:37;;;;;;;53.17;36.80;;;4.60;99.90;;;;;;5075809;28;20170;-71
2024/03/07 05:35:03;;;;;;;54.73;38.83;;;4.50;99.90;;;;;;5074970;28;20492;-71
2024/03/07 05:37:28;;;;;;;59.73;39.60;;;4.40;99.90;;;;;;5075160;28;20189;-71
2024/03/07 05:39:54;;;;;;;49.80;36.03;;;4.40;99.90;;;;;;5074828;28;20494;-71
2024/03/07 05:42:20;;;;;;;55.13;39.50;;;4.30;99.90;;;;;;5075416;28;20166;-72
2024/03/07 05:44:45;;;;;;;44.87;34.47;;;4.30;99.90;;;;;;5075281;28;20166;-72
2024/03/07 05:47:13;;;;;;;46.30;34.90;;;4.30;99.90;;;;;;5075151;28;20555;-72
2024/03/07 05:49:38;;;;;;;53.10;39.53;;;4.30;99.90;;;;;;5073468;28;20174;-71
2024/03/07 05:52:05;;;;;;;54.83;36.27;;;4.30;99.90;;;;;;5074494;28;20435;-71
2024/03/07 05:54:31;;;;;;;54.20;38.07;;;4.30;99.90;;;;;;5075434;28;20178;-72
2024/03/07 05:56:57;;;;;;;54.33;36.90;;;4.30;99.90;;;;;;5074490;28;20479;-72
2024/03/07 05:59:23;;;;;;;51.73;35.60;;;4.30;99.90;;;;;;5074508;28;20585;-72
2024/03/07 06:01:48;;;;;;;42.90;32.57;;;4.20;99.90;;;;;;5074595;28;20261;-72
2024/03/07 06:04:15;;;;;;;48.90;34.13;;;4.20;99.90;;;;;;5074549;28;20396;-72
2024/03/07 06:06:41;;;;;;;56.07;39.50;;;4.20;99.90;;;;;;5074412;28;20567;-71
2024/03/07 06:09:08;;;;;;;59.17;40.97;;;4.20;99.90;;;;;;5072953;28;20412;-72
2024/03/07 06:11:35;;;;;;;53.67;39.53;;;4.20;99.90;;;;;;5074069;28;20425;-71
2024/03/07 06:14:03;;;;;;;46.70;34.27;;;4.20;99.90;;;;;;5072525;28;20404;-73
2024/03/07 06:16:32;;;;;;;58.07;39.10;;;4.20;99.90;;;;;;5074243;28;20405;-72
2024/03/07 06:19:01;;;;;;;52.37;35.17;;;4.30;99.90;;;;;;5074426;28;20501;-71
2024/03/07 06:21:32;;;;;;;53.53;37.53;;;4.30;99.90;;;;;;5073436;28;20438;-72
2024/03/07 06:24:01;;;;;;;53.40;36.00;;;4.30;99.90;;;;;;5074399;28;20847;-72
2024/03/07 06:26:44;;;;;;;59.10;40.27;;;4.30;99.90;;;;;;5073227;28;20396;-72
2024/03/07 06:29:17;;;;;;;52.83;38.97;;;4.30;99.90;;;;;;5074234;28;20419;-72
2024/03/07 06:31:43;;;;;;;65.50;42.37;;;4.30;99.90;;;;;;5073895;28;20432;-71
2024/03/07 06:34:09;;;;;;;55.23;37.93;;;4.30;99.90;;;;;;5074204;28;20950;-72
2024/03/07 06:36:35;;;;;;;47.80;35.57;;;4.30;99.90;;;;;;5072705;28;20447;-72
2024/03/07 06:39:03;;;;;;;57.27;41.23;;;4.30;99.90;;;;;;5073749;28;20804;-71
2024/03/07 06:41:28;;;;;;;57.20;38.70;;;4.40;99.90;;;;;;5087722;22;20492;-70
2024/03/07 06:43:55;;;;;;;67.60;42.53;;;4.40;99.90;;;;;;5059231;28;20394;-67
2024/03/07 06:46:21;;;;;;;61.70;41.37;;;4.50;99.90;;;;;;5066027;28;20167;-66
2024/03/07 06:48:48;;;;;;;58.50;41.20;;;4.50;99.90;;;;;;5063318;28;20409;-69
2024/03/07 06:51:14;;;;;;;58.80;40.27;;;4.40;99.90;;;;;;5065204;28;20445;-69
2024/03/07 06:53:39;;;;;;;57.93;41.27;;;4.40;99.90;;;;;;5054188;28;20444;-71
2024/03/07 06:56:06;;;;;;;50.70;37.60;;;4.40;99.90;;;;;;5054068;28;20174;-70
2024/03/07 06:58:32;;;;;;;57.00;40.00;;;4.40;99.90;;;;;;5034387;28;20642;-69
2024/03/07 07:00:59;;;;;;;69.60;44.13;;;4.30;99.90;;;;;;5034439;28;20433;-70
2024/03/07 07:03:24;;;;;;;56.83;41.43;;;4.40;99.90;;;;;;5034040;28;20395;-69
2024/03/07 07:05:50;;;;;;;59.10;40.80;;;4.50;99.90;;;;;;5033890;28;20406;-70
2024/03/07 07:08:16;;;;;;;56.33;39.90;;;4.50;99.90;;;;;;5052430;28;20167;-70
2024/03/07 07:10:42;;;;;;;65.53;45.07;;;4.40;99.90;;;;;;5054061;28;20786;-69
2024/03/07 07:13:13;;;;;;;71.80;45.80;;;4.50;99.90;;;;;;5053936;28;20220;-70
2024/03/07 07:15:39;;;;;;;61.27;42.37;;;4.50;99.90;;;;;;5053663;28;20382;-69
2024/03/07 07:18:05;;;;;;;52.77;39.17;;;4.60;99.90;;;;;;5036543;28;20406;-69
2024/03/07 07:20:34;;;;;;;55.10;39.07;;;4.60;99.90;;;;;;5033108;28;20988;-69
2024/03/07 07:23:02;;;;;;;55.17;39.53;;;4.70;99.90;;;;;;5033432;28;20461;-69
2024/03/07 07:25:27;;;;;;;63.03;41.80;;;4.80;99.90;;;;;;5032942;28;20489;-69
2024/03/07 07:27:53;;;;;;;54.50;37.77;;;5.00;99.90;;;;;;5046887;28;20843;-70
2024/03/07 07:30:23;;;;;;;52.63;42.10;;;5.10;99.90;;;;;;5052071;28;20419;-68
2024/03/07 07:32:50;;;;;;;51.10;38.67;;;5.40;99.90;;;;;;5053039;28;20171;-69
2024/03/07 07:35:16;;;;;;;50.13;38.17;;;5.30;99.90;;;;;;5053249;28;20402;-69
2024/03/07 07:37:43;;;;;;;57.80;38.57;;;5.50;99.90;;;;;;5039978;28;20422;-68
2024/03/07 07:40:14;;;;;;;45.67;35.50;;;5.50;99.90;;;;;;5033304;28;21025;-69
2024/03/07 07:42:43;;;;;;;49.70;35.40;;;5.70;99.90;;;;;;5033398;28;20384;-69
2024/03/07 07:45:12;;;;;;;46.80;34.27;;;5.80;99.90;;;;;;5033176;28;20403;-69
2024/03/07 07:47:41;;;;;;;44.80;34.90;;;5.90;99.90;;;;;;5045710;28;20784;-68
2024/03/07 07:50:12;;;;;;;45.70;36.27;;;6.10;99.90;;;;;;5053572;28;20400;-68
2024/03/07 07:52:45;;;;;;;41.73;32.27;;;6.00;99.90;;;;;;5052988;28;20387;-68
2024/03/07 07:55:14;;;;;;;40.13;31.13;;;6.10;99.90;;;;;;5047502;28;20471;-69
2024/03/07 07:57:46;;;;;;;40.00;31.90;;;5.90;99.90;;;;;;5043194;28;20429;-70
2024/03/07 08:00:21;;;;;;;45.53;33.47;;;5.90;99.90;;;;;;5009788;28;20456;-71
2024/03/07 08:02:48;;;;;;;42.57;31.50;;;5.90;99.90;;;;;;5043576;28;20401;-70
2024/03/07 08:05:17;;;;;;;43.57;34.70;;;6.00;99.90;;;;;;5042874;28;20941;-70
2024/03/07 08:07:43;;;;;;;39.10;30.70;;;6.20;99.90;;;;;;5043277;28;20420;-71
2024/03/07 08:10:10;;;;;;;37.07;30.00;;;6.10;99.90;;;;;;5043331;28;20419;-70
2024/03/07 08:12:36;;;;;;;42.97;30.70;;;5.90;99.90;;;;;;5042853;28;20423;-70
2024/03/07 08:15:03;;;;;;;40.83;31.60;;;6.10;99.90;;;;;;5043201;28;21208;-68
2024/03/07 08:17:30;;;;;;;41.50;32.10;;;5.80;99.90;;;;;;5041866;28;20420;-71
2024/03/07 08:19:56;;;;;;;39.90;29.80;;;5.50;99.90;;;;;;5042862;28;20854;-72
2024/03/07 08:22:21;;;;;;;39.90;30.10;;;5.30;99.90;;;;;;5043057;28;20435;-72
2024/03/07 08:24:47;;;;;;;35.63;27.27;;;5.30;99.90;;;;;;5041662;28;20222;-72
2024/03/07 08:27:12;;;;;;;37.50;28.93;;;5.50;99.90;;;;;;5043149;28;20178;-72
2024/03/07 08:29:39;;;;;;;34.17;26.73;;;5.60;99.90;;;;;;5043057;28;20325;-70
2024/03/07 08:32:05;;;;;;;37.53;31.23;;;5.70;99.90;;;;;;5042912;28;20221;-70
2024/03/07 08:34:30;;;;;;;36.17;28.37;;;5.90;99.90;;;;;;5043209;28;20426;-71
2024/03/07 08:36:56;;;;;;;35.60;27.27;;;5.80;99.90;;;;;;5043802;28;20427;-71
2024/03/07 08:39:22;;;;;;;36.93;25.67;;;5.50;99.90;;;;;;5047054;28;20203;-71
2024/03/07 08:41:48;;;;;;;36.63;27.13;;;5.60;99.90;;;;;;5046947;28;20199;-71
2024/03/07 08:44:14;;;;;;;32.73;26.27;;;6.10;99.90;;;;;;5047671;28;20818;-72
2024/03/07 08:46:41;;;;;;;30.70;23.80;;;6.00;99.90;;;;;;5049442;28;20176;-71
2024/03/07 08:49:07;;;;;;;32.57;25.10;;;6.00;99.90;;;;;;5054228;28;20603;-74
2024/03/07 08:51:32;;;;;;;32.27;26.10;;;6.30;99.90;;;;;;5053591;28;20445;-73
2024/03/07 08:53:59;;;;;;;33.77;26.70;;;6.10;99.90;;;;;;5046636;28;20211;-72
2024/03/07 08:56:24;;;;;;;33.73;27.27;;;6.00;99.90;;;;;;5046849;28;20176;-70
2024/03/07 08:58:50;;;;;;;35.72;30.35;;;5.80;99.90;;;;;;5045851;28;20430;-72
2024/03/07 09:01:15;;;;;;;34.47;26.90;;;6.40;99.90;;;;;;5051063;28;20189;-72
2024/03/07 09:03:41;;;;;;;31.87;27.30;;;6.70;99.90;;;;;;5056727;28;20169;-70
2024/03/07 09:06:06;;;;;;;38.37;28.30;;;6.70;99.90;;;;;;5049110;28;20441;-72
2024/03/07 09:08:32;;;;;;;34.70;28.73;;;6.70;99.90;;;;;;5047100;28;20177;-74
2024/03/07 09:10:57;;;;;;;35.97;27.83;;;6.70;99.90;;;;;;5046420;28;20215;-74
2024/03/07 09:13:23;;;;;;;33.60;27.13;;;6.80;99.90;;;;;;5046905;28;20184;-72
2024/03/07 09:15:49;;;;;;;31.87;26.90;;;7.30;99.90;;;;;;5046352;28;20286;-71
2024/03/07 09:18:15;;;;;;;33.23;26.80;;;7.60;99.90;;;;;;5045837;28;20435;-74
2024/03/07 09:20:41;;;;;;;35.97;28.00;;;7.70;99.90;;;;;;5046142;28;20196;-72
2024/03/07 09:23:07;;;;;;;35.10;28.57;;;7.80;99.90;;;;;;5045931;28;20522;-73
2024/03/07 09:25:32;;;;;;;33.50;27.33;;;7.60;99.90;;;;;;5046257;28;20602;-72
2024/03/07 09:28:00;;;;;;;35.73;28.60;;;7.60;99.90;;;;;;5045941;28;20918;-74
2024/03/07 09:30:27;;;;;;;33.20;26.73;;;7.90;99.90;;;;;;5046031;28;20176;-70
2024/03/07 09:32:55;;;;;;;38.60;31.30;;;8.10;99.90;;;;;;5046096;28;20830;-70
2024/03/07 09:35:21;;;;;;;32.27;25.90;;;8.30;99.90;;;;;;5046231;28;20418;-70
2024/03/07 09:37:47;;;;;;;30.63;25.53;;;7.90;99.90;;;;;;5045798;28;20426;-69
2024/03/07 09:40:13;;;;;;;33.80;27.83;;;8.20;99.90;;;;;;5045367;28;20555;-71
2024/03/07 09:42:52;;;;;;;33.07;25.87;;;8.50;99.90;;;;;;5027851;28;20523;-71
2024/03/07 09:45:19;;;;;;;32.43;27.10;;;8.30;99.90;;;;;;5045561;28;20442;-71
2024/03/07 09:47:51;;;;;;;34.73;28.70;;;8.50;99.90;;;;;;5045201;28;20483;-72
2024/03/07 09:50:21;;;;;;;37.10;28.97;;;8.30;99.90;;;;;;5045695;28;20889;-71
2024/03/07 09:52:51;;;;;;;34.93;28.17;;;8.40;99.90;;;;;;5043981;28;20502;-71
2024/03/07 09:55:17;;;;;;;33.17;26.40;;;8.40;99.90;;;;;;5045352;28;20412;-71
2024/03/07 09:57:45;;;;;;;33.57;27.80;;;8.30;99.90;;;;;;5045477;28;20422;-70
2024/03/07 10:00:18;;;;;;;31.93;26.23;;;8.20;99.90;;;;;;5045485;28;20666;-72
2024/03/07 10:02:46;;;;;;;35.53;28.17;;;8.60;99.90;;;;;;5046512;28;20909;-71
2024/03/07 10:05:15;;;;;;;33.77;27.00;;;9.00;99.90;;;;;;5044978;28;21431;-68
2024/03/07 10:07:41;;;;;;;35.50;28.83;;;8.70;99.90;;;;;;5045449;28;20403;-70
2024/03/07 10:10:11;;;;;;;32.83;25.70;;;8.60;99.90;;;;;;5044975;28;20427;-70
2024/03/07 10:12:40;;;;;;;31.37;25.47;;;8.90;99.90;;;;;;5045344;28;20445;-70
2024/03/07 10:15:06;;;;;;;33.77;28.53;;;9.20;99.90;;;;;;5044657;28;20418;-70
2024/03/07 10:17:31;;;;;;;35.90;27.57;;;9.20;99.90;;;;;;5045073;28;20984;-70
2024/03/07 10:20:00;;;;;;;33.77;26.03;;;9.00;99.90;;;;;;5044802;28;20460;-71
2024/03/07 10:22:26;;;;;;;35.47;27.70;;;9.00;99.90;;;;;;5051869;28;20190;-70
2024/03/07 10:24:53;;;;;;;34.40;27.53;;;9.00;99.90;;;;;;5054537;28;20834;-70
2024/03/07 10:27:22;;;;;;;32.97;29.13;;;9.30;99.90;;;;;;5054212;28;20409;-71
2024/03/07 10:29:50;;;;;;;33.50;27.37;;;9.50;99.90;;;;;;5053788;28;20412;-71
2024/03/07 10:32:20;;;;;;;34.73;25.60;;;9.70;99.90;;;;;;5054412;28;20766;-69
2024/03/07 10:34:46;;;;;;;39.90;26.90;;;9.90;99.90;;;;;;5054408;28;20482;-71
2024/03/07 10:37:16;;;;;;;31.80;25.83;;;9.80;99.90;;;;;;5054039;28;20452;-71
2024/03/07 10:39:43;;;;;;;38.87;30.57;;;9.70;99.90;;;;;;5054421;28;20443;-71
2024/03/07 10:42:15;;;;;;;38.10;27.30;;;9.40;99.90;;;;;;5054109;28;20551;-71
2024/03/07 10:44:47;;;;;;;34.67;27.60;;;9.40;99.90;;;;;;5054432;28;20421;-70
2024/03/07 10:47:23;;;;;;;33.90;26.57;;;9.40;99.90;;;;;;5054276;28;20477;-69
2024/03/07 10:50:14;;;;;;;36.00;28.30;;;9.30;99.90;;;;;;5053972;28;20495;-69
2024/03/07 10:52:47;;;;;;;31.07;25.60;;;9.20;99.90;;;;;;5054110;28;20427;-69
2024/03/07 10:55:36;;;;;;;35.97;28.17;;;8.80;99.90;;;;;;5054104;28;20413;-70
2024/03/07 10:58:12;;;;;;;38.70;29.00;;;8.80;99.90;;;;;;5041164;28;20412;-70
2024/03/07 11:00:45;;;;;;;35.20;28.27;;;8.70;99.90;;;;;;5033504;28;20807;-69
2024/03/07 11:03:11;;;;;;;40.10;31.47;;;8.80;99.90;;;;;;5033860;28;20396;-70
2024/03/07 11:05:37;;;;;;;39.17;30.53;;;9.10;99.90;;;;;;5034155;28;20392;-70
2024/03/07 11:08:11;;;;;;;39.53;28.30;;;9.10;99.90;;;;;;5046833;28;20404;-70
2024/03/07 11:10:37;;;;;;;37.87;28.63;;;9.00;99.90;;;;;;5053401;28;20434;-71
2024/03/07 11:13:13;;;;;;;35.83;27.63;;;8.90;99.90;;;;;;5053568;28;20918;-71
2024/03/07 11:15:46;;;;;;;37.80;28.23;;;8.90;99.90;;;;;;5053307;28;20386;-71
2024/03/07 11:18:12;;;;;;;36.77;29.73;;;9.00;99.90;;;;;;5039704;28;20420;-71
2024/03/07 11:20:40;;;;;;;35.97;28.53;;;9.20;99.90;;;;;;5033581;28;20422;-71
2024/03/07 11:23:41;;;;;;;35.43;28.33;;;9.20;99.90;;;;;;5033557;28;20409;-71
2024/03/07 11:26:11;;;;;;;41.83;29.33;;;8.90;99.90;;;;;;5033771;28;20475;-71
2024/03/07 11:28:39;;;;;;;33.00;28.37;;;9.00;99.90;;;;;;5050690;28;20768;-70
2024/03/07 11:31:13;;;;;;;37.90;29.20;;;9.50;99.90;;;;;;5053421;28;20506;-71
2024/03/07 11:33:40;;;;;;;37.37;29.43;;;9.50;99.90;;;;;;5053821;28;20413;-71
2024/03/07 11:36:12;;;;;;;34.80;27.37;;;10.10;99.90;;;;;;5053421;28;20445;-71
2024/03/07 11:38:50;;;;;;;35.50;26.57;;;10.70;99.90;;;;;;5036169;28;20457;-71
2024/03/07 11:41:19;;;;;;;30.80;26.03;;;11.50;99.90;;;;;;5033189;28;20446;-71
2024/03/07 11:43:44;;;;;;;34.97;27.70;;;11.50;99.90;;;;;;5033182;28;20409;-71
2024/03/07 11:46:16;;;;;;;32.40;27.10;;;11.40;99.90;;;;;;5033182;28;20417;-71
2024/03/07 11:48:42;;;;;;;36.70;27.60;;;11.50;99.90;;;;;;5050744;28;20174;-71
2024/03/07 11:51:11;;;;;;;34.30;28.70;;;11.00;99.90;;;;;;5053250;28;20425;-72
2024/03/07 11:53:41;;;;;;;35.60;28.00;;;10.80;99.90;;;;;;5053244;28;20747;-70
2024/03/07 11:56:09;;;;;;;38.13;28.63;;;9.80;99.90;;;;;;5052720;28;20479;-71
2024/03/07 11:58:40;;;;;;;41.07;30.60;;;9.70;99.90;;;;;;5059624;28;20829;-71
2024/03/07 12:01:10;;;;;;;35.80;26.67;;;9.90;99.90;;;;;;5070780;28;20427;-71
2024/03/07 12:03:37;;;;;;;36.43;28.13;;;9.80;99.90;;;;;;5067331;28;20381;-71
2024/03/07 12:06:03;;;;;;;36.47;29.00;;;9.70;99.90;;;;;;5035794;28;20444;-71
2024/03/07 12:08:29;;;;;;;34.40;26.47;;;9.80;99.90;;;;;;5053255;28;20401;-70
2024/03/07 12:10:56;;;;;;;35.67;28.40;;;9.70;99.90;;;;;;5042507;28;20446;-70
2024/03/07 12:13:24;;;;;;;33.40;28.43;;;9.90;99.90;;;;;;5037506;28;20437;-70
2024/03/07 12:15:53;;;;;;;37.50;28.13;;;10.10;99.90;;;;;;5037624;28;20398;-71
2024/03/07 12:18:22;;;;;;;37.20;28.03;;;10.00;99.90;;;;;;5037258;28;20469;-71
2024/03/07 12:20:54;;;;;;;32.77;26.27;;;10.20;99.90;;;;;;5046887;28;20519;-71
2024/03/07 12:23:21;;;;;;;36.70;28.93;;;9.90;99.90;;;;;;5058435;28;20409;-70
2024/03/07 12:25:47;;;;;;;34.60;28.40;;;9.70;99.90;;;;;;5057010;28;20409;-70
2024/03/07 12:28:17;;;;;;;38.83;28.70;;;9.80;99.90;;;;;;5057528;28;20394;-71
2024/03/07 12:30:45;;;;;;;33.17;26.00;;;10.00;99.90;;;;;;5057107;28;20190;-72
2024/03/07 12:33:13;;;;;;;41.47;30.40;;;10.10;99.90;;;;;;5057039;28;20410;-74
2024/03/07 12:35:41;;;;;;;37.37;28.87;;;10.10;99.90;;;;;;5057448;28;20401;-73